Time;durP1;ratioP1;P1;durP2;ratioP2;P2;SDS_P1;SDS_P2;PMS_P1;PMS_P2;Temp;Humidity;BMP_temperature;BMP_pressure;BME280_temperature;BME280_humidity;BME280_pressure;Samples;Min_cycle;Max_cycle;Signal;HPM_P1;HPM_P2
2022/04/24 00:00:38;;;;;;;7.93;5.97;;;12.60;34.20;;;;;;5052459;28;20173;-33
2022/04/24 00:03:04;;;;;;;8.17;5.90;;;12.60;34.00;;;;;;5052802;28;20392;-33
2022/04/24 00:05:30;;;;;;;10.63;6.50;;;12.60;34.10;;;;;;5052956;28;20480;-33
2022/04/24 00:07:56;;;;;;;9.17;6.23;;;12.60;33.90;;;;;;5052653;28;20173;-33
2022/04/24 00:10:21;;;;;;;7.63;5.67;;;12.60;34.00;;;;;;5051980;28;20411;-33
2022/04/24 00:12:48;;;;;;;9.17;6.00;;;12.50;33.80;;;;;;5052517;28;20166;-33
2022/04/24 00:15:15;;;;;;;9.32;6.32;;;12.50;34.20;;;;;;5052232;28;20697;-33
2022/04/24 00:17:41;;;;;;;6.15;5.03;;;12.40;34.30;;;;;;5052593;28;20166;-33
2022/04/24 00:20:07;;;;;;;7.93;6.57;;;12.30;35.10;;;;;;5052767;28;20725;-33
2022/04/24 00:22:33;;;;;;;9.73;5.45;;;12.20;34.60;;;;;;5052113;28;20255;-33
2022/04/24 00:24:59;;;;;;;7.90;5.20;;;12.10;34.90;;;;;;5052583;28;20235;-33
2022/04/24 00:27:24;;;;;;;8.77;5.60;;;12.10;35.10;;;;;;5052351;28;20268;-33
2022/04/24 00:29:51;;;;;;;11.30;5.80;;;12.10;34.50;;;;;;5050748;28;20176;-33
2022/04/24 00:32:16;;;;;;;8.90;5.22;;;12.10;34.80;;;;;;5052048;28;20621;-33
2022/04/24 00:34:42;;;;;;;6.13;4.70;;;12.10;34.70;;;;;;5052156;28;20251;-33
2022/04/24 00:37:08;;;;;;;10.20;7.23;;;12.00;34.80;;;;;;5052389;28;20189;-33
2022/04/24 00:39:34;;;;;;;7.20;5.60;;;11.90;35.20;;;;;;5052459;28;20531;-33
2022/04/24 00:41:59;;;;;;;9.20;6.27;;;11.90;34.90;;;;;;5052130;28;20534;-33
2022/04/24 00:44:27;;;;;;;9.60;6.13;;;11.90;34.70;;;;;;5052328;28;20188;-33
2022/04/24 00:47:15;;;;;;;11.23;6.50;;;11.90;35.00;;;;;;5052588;28;20177;-33
2022/04/24 00:49:41;;;;;;;8.88;5.57;;;11.90;34.90;;;;;;5052221;28;20157;-33
2022/04/24 00:52:08;;;;;;;9.20;5.05;;;11.80;35.20;;;;;;5051801;28;20240;-33
2022/04/24 00:54:34;;;;;;;5.45;4.95;;;11.70;35.90;;;;;;5052293;28;20205;-33
2022/04/24 00:57:00;;;;;;;8.00;5.60;;;11.60;36.30;;;;;;5052028;28;20172;-33
2022/04/24 00:59:26;;;;;;;8.18;5.22;;;11.50;35.90;;;;;;5052287;28;20170;-33
2022/04/24 01:01:52;;;;;;;4.80;3.93;;;11.50;35.60;;;;;;5051625;28;20173;-33
2022/04/24 01:04:19;;;;;;;7.95;5.55;;;11.50;35.50;;;;;;5051762;28;20536;-33
2022/04/24 01:06:45;;;;;;;7.00;3.90;;;11.50;35.50;;;;;;5051377;28;20177;-33
2022/04/24 01:09:32;;;;;;;6.47;5.25;;;11.50;35.60;;;;;;5051774;28;20177;-33
2022/04/24 01:11:58;;;;;;;7.70;5.45;;;11.40;35.50;;;;;;5051526;28;20189;-33
2022/04/24 01:14:25;;;;;;;7.50;5.77;;;11.40;35.60;;;;;;5051881;28;20207;-33
2022/04/24 01:16:52;;;;;;;6.45;5.60;;;11.40;35.50;;;;;;5051878;28;20777;-33
2022/04/24 01:19:18;;;;;;;7.35;5.90;;;11.40;35.40;;;;;;5051699;28;20176;-33
2022/04/24 01:21:45;;;;;;;10.52;4.97;;;11.40;35.50;;;;;;5053276;28;20169;-33
2022/04/24 01:24:13;;;;;;;8.13;5.90;;;11.40;35.90;;;;;;5055609;28;20170;-33
2022/04/24 01:26:38;;;;;;;7.28;5.85;;;11.30;36.00;;;;;;5055691;28;20696;-33
2022/04/24 01:29:05;;;;;;;5.63;4.90;;;11.30;35.70;;;;;;5055192;28;20212;-33
2022/04/24 01:31:34;;;;;;;5.65;3.92;;;11.30;35.60;;;;;;5055785;28;20487;-33
2022/04/24 01:34:00;;;;;;;10.57;5.22;;;11.30;35.80;;;;;;5055553;28;20170;-33
2022/04/24 01:36:26;;;;;;;5.43;4.72;;;11.20;35.70;;;;;;5055557;28;20169;-33
2022/04/24 01:38:52;;;;;;;5.25;4.30;;;11.20;35.60;;;;;;5055665;28;20177;-33
2022/04/24 01:41:18;;;;;;;9.73;5.97;;;11.20;35.60;;;;;;5055236;28;20174;-33
2022/04/24 01:43:44;;;;;;;6.87;5.40;;;11.20;35.90;;;;;;5055435;28;20411;-33
2022/04/24 01:46:11;;;;;;;9.00;4.70;;;11.10;35.90;;;;;;5055487;28;20251;-33
2022/04/24 01:48:37;;;;;;;6.10;4.50;;;11.10;35.80;;;;;;5054929;28;20188;-34
2022/04/24 01:51:07;;;;;;;5.77;4.27;;;11.00;36.30;;;;;;5054845;28;20189;-34
2022/04/24 01:53:34;;;;;;;9.05;5.25;;;11.00;36.00;;;;;;5055547;28;20399;-34
2022/04/24 01:56:03;;;;;;;7.53;5.22;;;10.90;36.10;;;;;;5055140;28;20658;-34
2022/04/24 01:58:29;;;;;;;7.53;5.25;;;10.90;36.00;;;;;;5055143;28;20165;-34
2022/04/24 02:00:55;;;;;;;7.00;5.00;;;10.90;36.10;;;;;;5055032;28;20234;-34
2022/04/24 02:03:22;;;;;;;7.72;4.88;;;10.80;36.10;;;;;;5055142;28;20407;-34
2022/04/24 02:05:48;;;;;;;9.10;6.22;;;10.70;36.50;;;;;;5054888;28;20197;-34
2022/04/24 02:08:14;;;;;;;5.10;3.70;;;10.60;37.20;;;;;;5054985;28;20230;-34
2022/04/24 02:10:41;;;;;;;11.25;5.22;;;10.60;36.70;;;;;;5054664;28;20439;-34
2022/04/24 02:13:07;;;;;;;6.53;4.60;;;10.50;36.20;;;;;;5054981;28;20232;-34
2022/04/24 02:15:34;;;;;;;6.32;4.90;;;10.50;36.00;;;;;;5054813;28;20319;-34
2022/04/24 02:18:00;;;;;;;9.80;5.15;;;10.60;36.20;;;;;;5054918;28;20647;-34
2022/04/24 02:20:26;;;;;;;8.05;5.20;;;10.50;36.40;;;;;;5054437;28;20681;-34
2022/04/24 02:22:52;;;;;;;5.90;4.57;;;10.40;36.80;;;;;;5055110;28;20181;-34
2022/04/24 02:25:18;;;;;;;7.97;4.78;;;10.40;37.50;;;;;;5054702;28;20181;-34
2022/04/24 02:27:44;;;;;;;7.37;5.27;;;10.30;37.50;;;;;;5054775;28;20724;-34
2022/04/24 02:30:10;;;;;;;9.05;4.78;;;10.30;37.30;;;;;;5054627;28;20189;-34
2022/04/24 02:32:36;;;;;;;6.77;4.07;;;10.20;37.20;;;;;;5053788;28;20228;-34
2022/04/24 02:35:03;;;;;;;9.80;5.03;;;10.20;36.70;;;;;;5054355;28;20470;-34
2022/04/24 02:37:28;;;;;;;7.70;5.13;;;10.20;36.40;;;;;;5054166;28;20203;-34
2022/04/24 02:39:54;;;;;;;6.77;4.47;;;10.20;37.20;;;;;;5054429;28;20207;-33
2022/04/24 02:42:20;;;;;;;6.40;4.60;;;10.10;37.80;;;;;;5054276;28;20573;-34
2022/04/24 02:44:45;;;;;;;6.50;5.07;;;10.00;37.70;;;;;;5054254;28;20283;-34
2022/04/24 02:47:11;;;;;;;6.00;5.40;;;10.00;37.20;;;;;;5054341;28;20415;-33
2022/04/24 02:49:37;;;;;;;6.53;4.57;;;10.00;37.50;;;;;;5054161;28;20173;-34
2022/04/24 02:52:03;;;;;;;5.50;4.27;;;9.90;37.80;;;;;;5054153;28;20686;-34
2022/04/24 02:54:29;;;;;;;5.72;4.38;;;9.80;38.20;;;;;;5054268;28;20438;-33
2022/04/24 02:56:54;;;;;;;7.10;4.30;;;9.70;38.50;;;;;;5054134;28;20170;-34
2022/04/24 02:59:20;;;;;;;5.70;3.30;;;9.70;37.90;;;;;;5054160;28;20578;-34
2022/04/24 03:01:46;;;;;;;8.53;4.80;;;9.80;37.70;;;;;;5053895;28;20247;-33
2022/04/24 03:04:13;;;;;;;6.23;4.67;;;9.80;37.70;;;;;;5053914;28;20165;-33
2022/04/24 03:06:39;;;;;;;6.32;4.20;;;9.80;37.80;;;;;;5053548;28;20768;-33
2022/04/24 03:09:05;;;;;;;7.03;4.65;;;9.80;37.60;;;;;;5053635;28;20173;-34
2022/04/24 03:11:31;;;;;;;6.35;5.32;;;9.80;37.30;;;;;;5053861;28;20232;-34
2022/04/24 03:13:57;;;;;;;5.95;3.92;;;9.70;37.60;;;;;;5053696;28;20176;-34
2022/04/24 03:16:23;;;;;;;6.07;4.25;;;9.70;37.70;;;;;;5053760;28;20166;-33
2022/04/24 03:18:49;;;;;;;5.43;4.27;;;9.60;38.00;;;;;;5053653;28;20175;-34
2022/04/24 03:21:14;;;;;;;7.47;4.00;;;9.60;37.50;;;;;;5053477;28;20173;-34
2022/04/24 03:23:40;;;;;;;5.90;4.67;;;9.60;37.60;;;;;;5053616;28;20248;-33
2022/04/24 03:26:06;;;;;;;7.50;3.90;;;9.60;37.50;;;;;;5053530;28;20193;-34
2022/04/24 03:28:31;;;;;;;5.30;4.13;;;9.60;37.20;;;;;;5053510;28;20512;-34
2022/04/24 03:30:57;;;;;;;6.77;4.53;;;9.60;37.30;;;;;;5053178;28;20455;-33
2022/04/24 03:33:23;;;;;;;7.80;5.00;;;9.60;37.30;;;;;;5053238;28;20408;-33
2022/04/24 03:35:49;;;;;;;7.83;5.17;;;9.60;37.30;;;;;;5053433;28;20693;-34
2022/04/24 03:38:14;;;;;;;6.40;3.60;;;9.60;37.10;;;;;;5053358;28;20574;-34
2022/04/24 03:40:40;;;;;;;6.43;4.20;;;9.60;37.30;;;;;;5053289;28;20180;-33
2022/04/24 03:43:06;;;;;;;8.83;5.53;;;9.60;37.60;;;;;;5053127;28;20541;-34
2022/04/24 03:45:32;;;;;;;8.23;4.93;;;9.50;38.00;;;;;;5052257;28;20319;-33
2022/04/24 03:47:57;;;;;;;7.77;4.67;;;9.50;38.20;;;;;;5053070;28;20499;-33
2022/04/24 03:50:23;;;;;;;5.33;4.00;;;9.40;38.10;;;;;;5053034;28;20192;-34
2022/04/24 03:52:49;;;;;;;6.43;4.87;;;9.40;37.90;;;;;;5053114;28;20718;-33
2022/04/24 03:55:14;;;;;;;5.50;4.73;;;9.40;37.60;;;;;;5052898;28;20193;-33
2022/04/24 03:57:40;;;;;;;6.67;4.80;;;9.40;37.50;;;;;;5052915;28;20169;-33
2022/04/24 04:00:10;;;;;;;5.93;4.83;;;9.50;37.40;;;;;;5052826;28;20550;-33
2022/04/24 04:02:46;;;;;;;8.10;4.35;;;9.50;37.50;;;;;;5052962;28;20468;-33
2022/04/24 04:05:13;;;;;;;6.63;4.70;;;9.50;37.20;;;;;;5052859;28;20201;-33
2022/04/24 04:07:39;;;;;;;7.80;4.57;;;9.50;37.60;;;;;;5052704;28;20170;-33
2022/04/24 04:10:07;;;;;;;7.50;5.30;;;9.50;37.70;;;;;;5052680;28;20181;-33
2022/04/24 04:12:32;;;;;;;8.13;4.82;;;9.50;38.00;;;;;;5052413;28;20224;-33
2022/04/24 04:15:04;;;;;;;6.77;4.97;;;9.40;37.90;;;;;;5052290;28;20209;-33
2022/04/24 04:17:30;;;;;;;6.68;5.95;;;9.50;37.80;;;;;;5052463;28;20888;-33
2022/04/24 04:19:56;;;;;;;6.00;5.20;;;9.50;37.90;;;;;;5052496;28;20177;-33
2022/04/24 04:22:22;;;;;;;5.85;4.45;;;9.50;38.40;;;;;;5052216;28;20442;-33
2022/04/24 04:24:47;;;;;;;7.60;5.13;;;9.60;38.10;;;;;;5052588;28;20193;-33
2022/04/24 04:27:13;;;;;;;13.50;5.07;;;9.60;37.90;;;;;;5053212;28;20643;-33
2022/04/24 04:29:39;;;;;;;5.90;4.20;;;9.70;38.60;;;;;;5053219;28;20185;-33
2022/04/24 04:32:05;;;;;;;10.97;4.33;;;9.70;38.90;;;;;;5051920;28;20459;-34
2022/04/24 04:34:30;;;;;;;7.30;5.33;;;9.70;38.60;;;;;;5052135;28;20188;-33
2022/04/24 04:36:56;;;;;;;7.33;5.87;;;9.80;38.20;;;;;;5052267;28;20403;-34
2022/04/24 04:39:22;;;;;;;8.50;5.80;;;9.90;39.00;;;;;;5052463;28;20201;-33
2022/04/24 04:41:47;;;;;;;11.60;6.80;;;10.00;39.00;;;;;;5051924;28;20161;-33
2022/04/24 04:44:13;;;;;;;7.73;4.90;;;10.10;39.10;;;;;;5052074;28;20169;-33
2022/04/24 04:46:39;;;;;;;7.40;5.30;;;10.10;39.40;;;;;;5052132;28;20181;-33
2022/04/24 04:49:04;;;;;;;6.23;4.53;;;10.10;39.00;;;;;;5052223;28;20175;-33
2022/04/24 04:51:30;;;;;;;6.53;4.73;;;10.10;39.30;;;;;;5051842;28;20235;-33
2022/04/24 04:53:56;;;;;;;7.32;3.80;;;10.20;39.30;;;;;;5052141;28;20566;-33
2022/04/24 04:56:23;;;;;;;7.63;5.30;;;10.20;39.40;;;;;;5052032;28;20169;-33
2022/04/24 04:58:49;;;;;;;5.80;4.85;;;10.30;39.10;;;;;;5052047;28;20404;-33
2022/04/24 05:01:15;;;;;;;6.97;5.38;;;10.40;39.00;;;;;;5051916;28;20279;-34
2022/04/24 05:03:41;;;;;;;8.60;5.70;;;10.50;39.10;;;;;;5052069;28;20272;-34
2022/04/24 05:06:07;;;;;;;7.30;5.53;;;10.60;38.90;;;;;;5051736;28;20192;-33
2022/04/24 05:08:33;;;;;;;9.88;5.97;;;10.70;38.80;;;;;;5051795;28;20248;-33
2022/04/24 05:10:59;;;;;;;12.10;6.53;;;10.80;39.10;;;;;;5051771;28;20240;-34
2022/04/24 05:13:25;;;;;;;8.52;6.15;;;10.90;38.90;;;;;;5051662;28;20203;-34
2022/04/24 05:15:51;;;;;;;6.47;5.40;;;10.90;39.40;;;;;;5051641;28;20251;-34
2022/04/24 05:18:18;;;;;;;12.30;7.60;;;11.00;39.00;;;;;;5051652;28;20169;-34
2022/04/24 05:20:44;;;;;;;7.30;5.22;;;11.10;39.00;;;;;;5051579;28;20496;-34
2022/04/24 05:23:10;;;;;;;8.50;5.57;;;11.20;38.70;;;;;;5051685;28;20646;-34
2022/04/24 05:25:36;;;;;;;7.13;5.17;;;11.30;38.70;;;;;;5051562;28;21010;-34
2022/04/24 05:28:04;;;;;;;8.90;5.50;;;11.40;38.50;;;;;;5051601;28;20419;-33
2022/04/24 05:30:29;;;;;;;8.10;6.93;;;11.50;38.80;;;;;;5051318;28;20599;-34
2022/04/24 05:32:56;;;;;;;6.27;4.77;;;11.60;38.60;;;;;;5051731;28;20264;-34
2022/04/24 05:35:21;;;;;;;8.32;5.88;;;11.70;38.50;;;;;;5051097;28;20193;-34
2022/04/24 05:37:47;;;;;;;11.03;5.73;;;11.80;38.30;;;;;;5051636;28;20187;-34
2022/04/24 05:40:14;;;;;;;11.83;6.57;;;11.80;38.30;;;;;;5051494;28;20165;-34
2022/04/24 05:42:53;;;;;;;11.57;7.15;;;11.90;38.80;;;;;;5051350;28;20541;-34
2022/04/24 05:45:22;;;;;;;12.75;8.13;;;12.10;38.20;;;;;;5051318;28;20208;-34
2022/04/24 05:47:51;;;;;;;10.82;6.85;;;12.30;38.20;;;;;;5051564;28;20181;-34
2022/04/24 05:50:17;;;;;;;10.02;5.78;;;12.30;37.90;;;;;;5051345;28;20188;-34
2022/04/24 05:52:44;;;;;;;8.63;5.15;;;12.50;37.60;;;;;;5051161;28;20227;-34
2022/04/24 05:55:10;;;;;;;10.55;6.68;;;12.50;37.60;;;;;;5051549;28;20243;-34
2022/04/24 05:57:36;;;;;;;7.50;5.70;;;12.60;37.50;;;;;;5051397;28;20173;-33
2022/04/24 06:00:09;;;;;;;10.00;6.20;;;12.60;37.40;;;;;;5051372;28;20228;-34
2022/04/24 06:02:35;;;;;;;8.07;6.47;;;12.80;37.50;;;;;;5051078;28;20173;-34
2022/04/24 06:05:01;;;;;;;10.38;7.07;;;12.80;37.40;;;;;;5051170;28;20548;-34
2022/04/24 06:07:27;;;;;;;13.53;7.57;;;12.90;37.50;;;;;;5052218;28;20726;-34
2022/04/24 06:09:52;;;;;;;11.77;7.60;;;13.10;37.60;;;;;;5054883;28;20177;-34
2022/04/24 06:12:18;;;;;;;11.53;5.87;;;13.10;37.60;;;;;;5054691;28;20486;-34
2022/04/24 06:14:44;;;;;;;9.37;7.33;;;13.20;37.40;;;;;;5054627;28;20335;-33
2022/04/24 06:17:10;;;;;;;10.80;7.33;;;13.20;38.30;;;;;;5054851;28;20191;-33
2022/04/24 06:19:35;;;;;;;11.13;7.47;;;13.10;38.20;;;;;;5054758;28;20403;-34
2022/04/24 06:22:01;;;;;;;13.93;6.83;;;13.10;38.10;;;;;;5053920;28;20181;-33
2022/04/24 06:24:27;;;;;;;12.23;7.70;;;13.10;38.30;;;;;;5054623;28;20547;-34
2022/04/24 06:26:52;;;;;;;14.20;8.10;;;13.10;38.60;;;;;;5054731;28;20200;-34
2022/04/24 06:29:18;;;;;;;8.93;8.10;;;13.10;38.30;;;;;;5054511;28;20545;-33
2022/04/24 06:31:44;;;;;;;11.53;7.10;;;13.10;38.40;;;;;;5054190;28;20204;-33
2022/04/24 06:34:10;;;;;;;9.10;6.57;;;13.20;38.30;;;;;;5054527;28;20215;-33
2022/04/24 06:36:36;;;;;;;11.40;8.10;;;13.30;38.40;;;;;;5054397;28;20165;-34
2022/04/24 06:39:02;;;;;;;10.13;7.60;;;13.40;38.40;;;;;;5054337;28;20196;-34
2022/04/24 06:41:28;;;;;;;13.77;8.60;;;13.40;38.30;;;;;;5054162;28;20404;-33
2022/04/24 06:43:54;;;;;;;10.60;8.47;;;13.40;38.10;;;;;;5054371;28;20169;-34
2022/04/24 06:46:20;;;;;;;11.00;6.82;;;13.50;38.10;;;;;;5054102;28;20432;-34
2022/04/24 06:48:45;;;;;;;10.10;7.23;;;13.50;38.30;;;;;;5054176;28;20173;-34
2022/04/24 06:51:11;;;;;;;12.53;8.17;;;13.60;38.10;;;;;;5053713;28;20283;-33
2022/04/24 06:53:38;;;;;;;12.00;8.93;;;13.60;37.90;;;;;;5053754;28;20169;-34
2022/04/24 06:56:04;;;;;;;11.35;6.70;;;13.70;38.10;;;;;;5053847;28;20223;-34
2022/04/24 06:58:30;;;;;;;11.35;7.35;;;13.70;38.10;;;;;;5054003;28;20165;-33
2022/04/24 07:00:56;;;;;;;14.70;7.63;;;13.70;37.80;;;;;;5053706;28;20176;-34
2022/04/24 07:03:24;;;;;;;17.80;6.85;;;13.80;37.80;;;;;;5053964;28;20412;-33
2022/04/24 07:05:54;;;;;;;11.93;7.95;;;13.90;37.90;;;;;;5053749;28;20200;-33
2022/04/24 07:08:21;;;;;;;12.63;7.35;;;13.90;38.10;;;;;;5053858;28;20164;-33
2022/04/24 07:10:47;;;;;;;12.45;7.93;;;14.00;37.90;;;;;;5052834;28;20550;-33
2022/04/24 07:13:13;;;;;;;11.32;7.10;;;14.10;37.60;;;;;;5035908;28;20251;-34
2022/04/24 07:15:39;;;;;;;12.70;8.73;;;14.00;37.60;;;;;;5053500;28;20703;-34
2022/04/24 07:18:06;;;;;;;10.95;8.27;;;14.10;37.90;;;;;;5053568;28;20367;-33
2022/04/24 07:20:32;;;;;;;13.23;9.05;;;14.20;37.60;;;;;;5052555;28;20181;-33
2022/04/24 07:23:02;;;;;;;10.87;7.60;;;14.30;37.60;;;;;;5053737;28;20177;-34
2022/04/24 07:25:33;;;;;;;16.10;8.73;;;14.40;37.40;;;;;;5053567;28;20419;-34
2022/04/24 07:28:00;;;;;;;12.02;7.10;;;14.60;37.40;;;;;;5053593;28;20166;-34
2022/04/24 07:30:26;;;;;;;18.35;10.18;;;14.80;37.30;;;;;;5053281;28;20280;-33
2022/04/24 07:32:56;;;;;;;13.55;7.57;;;15.00;37.50;;;;;;5053281;28;20729;-34
2022/04/24 07:35:23;;;;;;;14.55;7.00;;;15.20;36.70;;;;;;5053296;28;20200;-34
2022/04/24 07:37:49;;;;;;;11.15;7.50;;;15.30;36.60;;;;;;5053476;28;20635;-34
2022/04/24 07:40:17;;;;;;;12.93;7.85;;;15.50;37.00;;;;;;5053267;28;20170;-33
2022/04/24 07:42:47;;;;;;;12.63;6.57;;;15.60;36.10;;;;;;5053276;28;20166;-34
2022/04/24 07:45:28;;;;;;;10.98;6.40;;;15.70;36.40;;;;;;5053151;28;20263;-33
2022/04/24 07:47:55;;;;;;;11.90;7.32;;;15.90;35.30;;;;;;5053480;28;20162;-34
2022/04/24 07:50:24;;;;;;;10.23;6.68;;;16.00;35.40;;;;;;5053110;28;20174;-34
2022/04/24 07:52:51;;;;;;;11.00;6.78;;;16.10;34.20;;;;;;5052955;28;20205;-34
2022/04/24 07:55:19;;;;;;;9.57;7.53;;;16.20;35.00;;;;;;5053243;28;20220;-33
2022/04/24 07:57:49;;;;;;;11.55;7.18;;;16.40;34.40;;;;;;5052999;28;20547;-34
2022/04/24 08:00:16;;;;;;;13.48;6.40;;;16.40;34.20;;;;;;5053209;28;20169;-34
2022/04/24 08:02:46;;;;;;;11.73;7.05;;;16.50;33.10;;;;;;5052890;28;20654;-34
2022/04/24 08:05:18;;;;;;;15.93;8.15;;;16.60;33.50;;;;;;5052972;28;20205;-34
2022/04/24 08:07:44;;;;;;;9.60;7.63;;;16.70;33.30;;;;;;5053034;28;20165;-34
2022/04/24 08:10:10;;;;;;;8.50;7.50;;;16.70;34.10;;;;;;5052601;28;20532;-34
2022/04/24 08:12:35;;;;;;;12.73;8.10;;;16.80;34.00;;;;;;5052506;28;20208;-34
2022/04/24 08:15:01;;;;;;;11.67;8.33;;;16.90;33.80;;;;;;5052415;28;20208;-34
2022/04/24 08:17:27;;;;;;;11.30;7.63;;;17.00;32.50;;;;;;5052883;28;20169;-34
2022/04/24 08:19:52;;;;;;;13.93;7.00;;;17.00;33.40;;;;;;5052499;28;20913;-34
2022/04/24 08:22:18;;;;;;;13.00;7.93;;;17.00;33.10;;;;;;5052207;28;20174;-34
2022/04/24 08:24:44;;;;;;;9.47;7.50;;;17.10;34.00;;;;;;5052622;28;20200;-34
2022/04/24 08:27:09;;;;;;;11.00;7.17;;;17.20;32.50;;;;;;5052291;28;20268;-34
2022/04/24 08:29:35;;;;;;;16.70;8.37;;;17.30;33.00;;;;;;5052092;28;20543;-34
2022/04/24 08:32:01;;;;;;;8.83;7.27;;;17.40;32.80;;;;;;5051792;28;20201;-34
2022/04/24 08:34:26;;;;;;;9.47;6.47;;;17.50;33.40;;;;;;5052283;28;20193;-34
2022/04/24 08:36:52;;;;;;;8.87;7.13;;;17.70;33.50;;;;;;5052147;28;20211;-34
2022/04/24 08:39:18;;;;;;;8.70;7.70;;;17.80;33.30;;;;;;5052112;28;20210;-34
2022/04/24 08:41:44;;;;;;;12.13;7.13;;;17.80;32.30;;;;;;5051737;28;20180;-34
2022/04/24 08:44:10;;;;;;;11.32;7.50;;;17.90;32.10;;;;;;5052008;28;20173;-34
2022/04/24 08:46:36;;;;;;;9.03;6.50;;;17.90;31.60;;;;;;5051391;28;20555;-34
2022/04/24 08:49:03;;;;;;;8.88;6.13;;;17.90;31.90;;;;;;5050593;28;20674;-34
2022/04/24 08:51:45;;;;;;;10.13;7.05;;;17.90;31.50;;;;;;5051898;28;20270;-34
2022/04/24 08:54:12;;;;;;;11.00;6.18;;;18.00;31.70;;;;;;5051731;28;20314;-34
2022/04/24 08:56:38;;;;;;;7.60;6.30;;;17.90;31.60;;;;;;5051906;28;20165;-34
2022/04/24 08:59:04;;;;;;;9.00;6.55;;;17.90;31.40;;;;;;5051806;28;20816;-34
2022/04/24 09:04:04;;;;;;;8.60;4.63;;;18.00;30.90;;;;;;5058379;28;20213;-30
2022/04/24 09:06:29;;;;;;;8.50;5.73;;;18.00;29.70;;;;;;5071912;28;20222;-30
2022/04/24 09:09:06;;;;;;;7.50;5.47;;;18.00;30.90;;;;;;5063851;28;20458;-30
2022/04/24 09:11:33;;;;;;;6.88;6.00;;;18.10;29.90;;;;;;5059518;28;20523;-30
2022/04/24 09:16:48;;;;;;;7.97;4.90;;;18.30;31.10;;;;;;5051680;28;20161;-30
2022/04/24 09:19:25;;;;;;;8.20;6.30;;;18.40;30.90;;;;;;5051757;28;20161;-30
2022/04/24 09:21:52;;;;;;;7.68;4.63;;;18.50;30.90;;;;;;5051348;28;20239;-30
2022/04/24 09:24:18;;;;;;;6.68;4.78;;;18.50;30.00;;;;;;5051701;28;20673;-30
2022/04/24 09:26:55;;;;;;;9.13;5.15;;;18.60;30.40;;;;;;5051441;28;20200;-30
2022/04/24 09:29:23;;;;;;;8.68;6.47;;;18.60;28.80;;;;;;5051843;28;20495;-30
2022/04/24 09:31:50;;;;;;;5.70;4.40;;;18.70;29.70;;;;;;5051168;28;20437;-30
2022/04/24 09:34:18;;;;;;;8.13;5.47;;;18.70;28.90;;;;;;5051626;28;20165;-30
2022/04/24 09:36:59;;;;;;;6.97;4.57;;;18.70;27.60;;;;;;5051484;28;20165;-30
2022/04/24 09:39:29;;;;;;;8.05;5.28;;;18.60;26.90;;;;;;5051588;28;20169;-30
2022/04/24 09:42:21;;;;;;;7.60;5.40;;;18.50;27.20;;;;;;5051254;28;20673;-30
2022/04/24 09:44:48;;;;;;;7.90;5.32;;;18.50;28.30;;;;;;5050756;28;20185;-30
2022/04/24 09:47:18;;;;;;;6.88;4.38;;;18.40;27.80;;;;;;5055372;28;20168;-30
2022/04/24 09:49:47;;;;;;;6.28;4.47;;;18.40;28.60;;;;;;5055288;28;20170;-30
2022/04/24 09:52:15;;;;;;;6.70;4.40;;;18.30;27.60;;;;;;5054887;28;20197;-30
2022/04/24 09:54:43;;;;;;;9.30;5.55;;;18.30;28.40;;;;;;5055118;28;20169;-30
2022/04/24 09:57:10;;;;;;;6.95;4.45;;;18.30;27.50;;;;;;5055099;28;20527;-30
2022/04/24 09:59:41;;;;;;;8.95;5.50;;;18.20;27.80;;;;;;5055346;28;20571;-33
2022/04/24 10:02:08;;;;;;;5.47;4.90;;;18.20;27.80;;;;;;5054528;28;20201;-30
2022/04/24 10:04:38;;;;;;;8.07;5.28;;;18.10;27.80;;;;;;5055096;28;20187;-30
2022/04/24 10:07:06;;;;;;;11.25;6.68;;;18.00;27.60;;;;;;5054993;28;20166;-30
2022/04/24 10:09:37;;;;;;;7.00;5.32;;;17.90;28.10;;;;;;5054887;28;20228;-30
2022/04/24 10:12:10;;;;;;;7.82;5.55;;;17.80;28.10;;;;;;5054559;28;20232;-30
2022/04/24 10:14:55;;;;;;;7.90;5.85;;;17.80;28.40;;;;;;5054828;28;20181;-30
2022/04/24 10:17:43;;;;;;;7.88;5.47;;;17.90;28.50;;;;;;5054745;28;20252;-30
2022/04/24 10:20:47;;;;;;;6.63;3.90;;;17.80;28.60;;;;;;5054768;28;20162;-30
2022/04/24 10:23:12;;;;;;;7.72;5.65;;;17.90;29.10;;;;;;5054687;28;20604;-30
2022/04/24 10:25:43;;;;;;;10.10;5.77;;;17.90;29.20;;;;;;5054926;28;20180;-30
2022/04/24 10:28:13;;;;;;;7.47;5.30;;;17.80;28.50;;;;;;5054603;28;20414;-30
2022/04/24 10:30:40;;;;;;;5.43;4.47;;;17.80;29.20;;;;;;5054255;28;20299;-30
2022/04/24 10:33:14;;;;;;;7.43;6.28;;;17.80;29.50;;;;;;5054438;28;20186;-30
2022/04/24 10:35:50;;;;;;;7.38;5.05;;;17.70;29.10;;;;;;5054429;28;20165;-30
2022/04/24 10:38:19;;;;;;;7.75;5.15;;;17.70;29.70;;;;;;5053478;28;20527;-30
2022/04/24 10:41:06;;;;;;;8.73;5.45;;;17.60;29.10;;;;;;5061790;28;20371;-30
2022/04/24 10:43:40;;;;;;;8.50;6.13;;;17.50;29.50;;;;;;5034359;28;20567;-30
2022/04/24 10:46:25;;;;;;;8.30;4.38;;;17.40;29.10;;;;;;5034336;28;20188;-30
2022/04/24 10:48:51;;;;;;;7.25;4.55;;;17.30;29.10;;;;;;5034354;28;20154;-30
2022/04/24 10:51:32;;;;;;;7.53;4.67;;;17.30;29.50;;;;;;5033893;28;20197;-30
2022/04/24 10:54:00;;;;;;;5.78;4.68;;;17.20;29.50;;;;;;5033824;28;20893;-30
2022/04/24 10:56:27;;;;;;;6.55;4.13;;;17.20;30.00;;;;;;5034161;28;20174;-30
2022/04/24 10:58:53;;;;;;;9.48;4.72;;;17.20;30.20;;;;;;5034190;28;20162;-30
2022/04/24 11:01:19;;;;;;;7.10;4.63;;;17.20;30.50;;;;;;5033796;28;20181;-30
2022/04/24 11:03:46;;;;;;;10.43;5.30;;;17.20;30.00;;;;;;5033934;28;20216;-30
2022/04/24 11:06:23;;;;;;;6.93;5.30;;;17.20;30.70;;;;;;5033975;28;20411;-30
2022/04/24 11:08:52;;;;;;;4.95;4.40;;;17.10;31.00;;;;;;5033893;28;20666;-30
2022/04/24 11:11:19;;;;;;;6.70;4.85;;;17.10;31.50;;;;;;5033554;28;20554;-30
2022/04/24 11:13:45;;;;;;;9.02;3.92;;;17.10;31.70;;;;;;5033827;28;20190;-30
2022/04/24 11:16:12;;;;;;;7.00;4.55;;;17.00;32.40;;;;;;5034237;28;20162;-30
2022/04/24 11:18:38;;;;;;;6.93;4.05;;;16.90;32.70;;;;;;5034477;28;20635;-30
2022/04/24 11:21:06;;;;;;;4.70;3.40;;;16.80;33.00;;;;;;5033782;28;20189;-30
2022/04/24 11:23:40;;;;;;;5.45;4.80;;;16.70;33.40;;;;;;5033526;28;20190;-30
2022/04/24 11:26:12;;;;;;;5.43;3.75;;;16.60;33.70;;;;;;5033571;28;20158;-30
2022/04/24 11:28:46;;;;;;;9.07;4.63;;;16.50;34.10;;;;;;5033613;28;20174;-30
2022/04/24 11:31:20;;;;;;;3.75;3.20;;;16.50;34.70;;;;;;5033159;28;20750;-30
2022/04/24 11:34:00;;;;;;;5.82;4.72;;;16.40;35.10;;;;;;5033697;28;20537;-30
2022/04/24 11:36:31;;;;;;;9.88;4.65;;;16.30;35.70;;;;;;5033420;28;20671;-30
2022/04/24 11:38:57;;;;;;;7.75;5.28;;;16.30;35.60;;;;;;5033305;28;20173;-30
2022/04/24 11:41:28;;;;;;;7.28;5.53;;;16.30;35.70;;;;;;5031851;28;20734;-30
2022/04/24 11:52:43;;;;;;;6.60;5.18;;;16.20;37.00;;;;;;5032633;28;20220;-30
2022/04/24 11:55:12;;;;;;;8.30;4.90;;;16.10;36.90;;;;;;5033112;28;20284;-30
2022/04/24 11:57:37;;;;;;;6.90;4.05;;;16.10;37.70;;;;;;5033008;28;20260;-30
2022/04/24 12:00:08;;;;;;;7.30;4.73;;;16.10;38.40;;;;;;5032888;28;20256;-30
2022/04/24 12:02:35;;;;;;;9.77;6.15;;;16.10;37.10;;;;;;5032765;28;20455;-30
2022/04/24 12:05:02;;;;;;;8.63;5.20;;;16.10;37.10;;;;;;5032431;28;20541;-30
2022/04/24 12:07:32;;;;;;;6.88;4.45;;;16.10;37.10;;;;;;5032742;28;20181;-30
2022/04/24 12:10:10;;;;;;;7.30;5.22;;;16.10;37.40;;;;;;5032760;28;20184;-30
2022/04/24 12:12:51;;;;;;;10.45;6.32;;;16.10;36.90;;;;;;5045699;28;20200;-30
2022/04/24 12:15:22;;;;;;;8.05;5.45;;;16.10;37.10;;;;;;5064150;28;20175;-30
2022/04/24 12:17:53;;;;;;;6.68;4.35;;;16.10;36.40;;;;;;5072543;28;20709;-30
2022/04/24 12:20:20;;;;;;;8.07;5.32;;;16.10;36.80;;;;;;5072390;28;20169;-30
2022/04/24 12:22:46;;;;;;;8.60;5.05;;;16.10;36.20;;;;;;5072189;28;20715;-30
2022/04/24 12:25:15;;;;;;;7.10;4.30;;;16.10;36.70;;;;;;5072399;28;20180;-30
2022/04/24 12:27:55;;;;;;;10.57;5.10;;;16.10;36.60;;;;;;5072306;28;20169;-30
2022/04/24 12:30:21;;;;;;;10.00;5.35;;;16.10;36.70;;;;;;5072287;28;20160;-30
2022/04/24 12:32:48;;;;;;;5.30;3.60;;;16.10;36.70;;;;;;5067409;28;20254;-30
2022/04/24 12:35:31;;;;;;;8.00;5.05;;;16.20;36.90;;;;;;5063812;28;20172;-30
2022/04/24 12:37:58;;;;;;;7.95;4.55;;;16.20;37.20;;;;;;5072349;28;20167;-30
2022/04/24 12:40:23;;;;;;;7.70;4.95;;;16.20;37.30;;;;;;5071935;28;20175;-30
2022/04/24 12:42:55;;;;;;;6.67;4.50;;;16.20;37.20;;;;;;5072031;28;20188;-30
2022/04/24 12:45:24;;;;;;;7.00;5.05;;;16.20;37.90;;;;;;5064114;28;20680;-30
2022/04/24 12:47:50;;;;;;;10.82;6.40;;;16.30;37.20;;;;;;5063688;28;20172;-31
2022/04/24 12:50:17;;;;;;;10.00;5.68;;;16.20;38.10;;;;;;5072075;28;20179;-31
2022/04/24 12:52:43;;;;;;;7.43;4.45;;;16.20;38.00;;;;;;5071751;28;20619;-30
2022/04/24 12:55:10;;;;;;;9.95;5.82;;;16.20;38.20;;;;;;5071872;28;20165;-30
2022/04/24 12:57:36;;;;;;;8.07;6.35;;;16.20;39.30;;;;;;5071941;28;20169;-30
2022/04/24 13:00:06;;;;;;;9.87;6.53;;;16.20;38.70;;;;;;5071869;28;20170;-30
2022/04/24 13:02:32;;;;;;;6.05;5.30;;;16.20;39.50;;;;;;5071731;28;20854;-30